sensor_id;sensor_type;location;lat;lon;timestamp;P1;durP1;ratioP1;P2;durP2;ratioP2
28180;SDS011;15464;50.988;10.318;2022-11-20T10:35:41;47.00;;;25.65;;
28180;SDS011;15464;50.988;10.318;2022-11-20T10:38:24;52.30;;;26.40;;
28180;SDS011;15464;50.988;10.318;2022-11-20T10:40:57;53.35;;;28.17;;
28180;SDS011;15464;50.988;10.318;2022-11-20T10:43:46;47.70;;;26.08;;
28180;SDS011;15464;50.988;10.318;2022-11-20T10:46:21;47.90;;;26.50;;
28180;SDS011;15464;50.988;10.318;2022-11-20T10:48:48;46.75;;;27.05;;
28180;SDS011;15464;50.988;10.318;2022-11-20T10:57:14;42.00;;;24.90;;
28180;SDS011;15464;50.988;10.318;2022-11-20T10:59:54;39.60;;;23.40;;
28180;SDS011;15464;50.988;10.318;2022-11-20T11:05:22;37.25;;;22.15;;
28180;SDS011;15464;50.988;10.318;2022-11-20T11:07:56;38.65;;;22.98;;
28180;SDS011;15464;50.988;10.318;2022-11-20T11:13:25;37.80;;;23.13;;
28180;SDS011;15464;50.988;10.318;2022-11-20T11:15:53;37.80;;;23.30;;
28180;SDS011;15464;50.988;10.318;2022-11-20T11:18:24;39.83;;;24.02;;
28180;SDS011;15464;50.988;10.318;2022-11-20T11:20:54;42.72;;;24.35;;
28180;SDS011;15464;50.988;10.318;2022-11-20T11:23:35;43.83;;;25.23;;
28180;SDS011;15464;50.988;10.318;2022-11-20T11:26:21;45.67;;;26.25;;
28180;SDS011;15464;50.988;10.318;2022-11-20T11:28:59;57.03;;;29.85;;
28180;SDS011;15464;50.988;10.318;2022-11-20T11:31:28;46.88;;;26.98;;
28180;SDS011;15464;50.988;10.318;2022-11-20T11:34:07;40.80;;;25.50;;
28180;SDS011;15464;50.988;10.318;2022-11-20T11:36:38;41.33;;;24.85;;
28180;SDS011;15464;50.988;10.318;2022-11-20T11:39:08;48.58;;;27.42;;
28180;SDS011;15464;50.988;10.318;2022-11-20T11:41:40;46.38;;;26.80;;
28180;SDS011;15464;50.988;10.318;2022-11-20T11:44:17;41.67;;;24.65;;
28180;SDS011;15464;50.988;10.318;2022-11-20T11:47:25;41.35;;;23.73;;
28180;SDS011;15464;50.988;10.318;2022-11-20T11:55:12;45.28;;;25.75;;
28180;SDS011;15464;50.988;10.318;2022-11-20T11:57:55;41.85;;;23.67;;
28180;SDS011;15464;50.988;10.318;2022-11-20T12:00:31;35.40;;;22.65;;
28180;SDS011;15464;50.988;10.318;2022-11-20T12:03:04;40.72;;;25.25;;
28180;SDS011;15464;50.988;10.318;2022-11-20T12:05:43;40.88;;;24.92;;
28180;SDS011;15464;50.988;10.318;2022-11-20T12:13:48;50.88;;;26.48;;
28180;SDS011;15464;50.988;10.318;2022-11-20T12:16:20;47.03;;;26.95;;
28180;SDS011;15464;50.988;10.318;2022-11-20T12:18:49;51.83;;;28.75;;
28180;SDS011;15464;50.988;10.318;2022-11-20T12:24:04;50.95;;;28.85;;
28180;SDS011;15464;50.988;10.318;2022-11-20T12:32:34;55.42;;;28.65;;
28180;SDS011;15464;50.988;10.318;2022-11-20T12:50:17;55.15;;;29.42;;
28180;SDS011;15464;50.988;10.318;2022-11-20T13:07:09;55.58;;;30.23;;
28180;SDS011;15464;50.988;10.318;2022-11-20T13:09:42;66.15;;;32.92;;
28180;SDS011;15464;50.988;10.318;2022-11-20T13:14:53;54.70;;;30.23;;
28180;SDS011;15464;50.988;10.318;2022-11-20T13:17:30;61.65;;;30.73;;
28180;SDS011;15464;50.988;10.318;2022-11-20T13:20:29;61.25;;;31.50;;
28180;SDS011;15464;50.988;10.318;2022-11-20T13:22:57;58.85;;;30.33;;
28180;SDS011;15464;50.988;10.318;2022-11-20T13:25:32;60.17;;;30.73;;
28180;SDS011;15464;50.988;10.318;2022-11-20T13:28:01;56.38;;;29.33;;
28180;SDS011;15464;50.988;10.318;2022-11-20T13:30:31;53.55;;;28.70;;
28180;SDS011;15464;50.988;10.318;2022-11-20T13:40:34;56.50;;;30.05;;
28180;SDS011;15464;50.988;10.318;2022-11-20T13:46:02;49.17;;;27.60;;
28180;SDS011;15464;50.988;10.318;2022-11-20T13:48:32;49.80;;;27.83;;
28180;SDS011;15464;50.988;10.318;2022-11-20T14:01:24;48.08;;;26.35;;
28180;SDS011;15464;50.988;10.318;2022-11-20T14:03:56;52.10;;;27.58;;
28180;SDS011;15464;50.988;10.318;2022-11-20T14:06:32;49.85;;;28.10;;
28180;SDS011;15464;50.988;10.318;2022-11-20T14:09:10;48.78;;;27.60;;
28180;SDS011;15464;50.988;10.318;2022-11-20T14:11:45;44.00;;;25.65;;
28180;SDS011;15464;50.988;10.318;2022-11-20T14:14:17;43.50;;;25.17;;
28180;SDS011;15464;50.988;10.318;2022-11-20T14:16:47;36.05;;;20.65;;
28180;SDS011;15464;50.988;10.318;2022-11-20T14:24:45;33.60;;;18.95;;
28180;SDS011;15464;50.988;10.318;2022-11-20T14:27:13;32.60;;;18.30;;
28180;SDS011;15464;50.988;10.318;2022-11-20T14:32:09;34.60;;;20.38;;
28180;SDS011;15464;50.988;10.318;2022-11-20T14:34:40;40.83;;;22.60;;
28180;SDS011;15464;50.988;10.318;2022-11-20T14:37:13;38.70;;;22.25;;
28180;SDS011;15464;50.988;10.318;2022-11-20T14:39:51;38.38;;;22.15;;
28180;SDS011;15464;50.988;10.318;2022-11-20T14:42:22;39.25;;;22.17;;
28180;SDS011;15464;50.988;10.318;2022-11-20T14:44:51;39.58;;;22.17;;
28180;SDS011;15464;50.988;10.318;2022-11-20T14:47:21;35.58;;;21.08;;
28180;SDS011;15464;50.988;10.318;2022-11-20T14:49:52;41.38;;;23.25;;
28180;SDS011;15464;50.988;10.318;2022-11-20T14:52:22;44.15;;;23.55;;
28180;SDS011;15464;50.988;10.318;2022-11-20T14:54:51;41.30;;;23.70;;
28180;SDS011;15464;50.988;10.318;2022-11-20T14:57:26;42.53;;;23.92;;
28180;SDS011;15464;50.988;10.318;2022-11-20T15:02:44;41.55;;;24.30;;
28180;SDS011;15464;50.988;10.318;2022-11-20T15:05:13;42.90;;;23.58;;
28180;SDS011;15464;50.988;10.318;2022-11-20T15:07:42;50.53;;;26.35;;
